Time;durP1;ratioP1;P1;durP2;ratioP2;P2;SDS_P1;SDS_P2;PMS_P1;PMS_P2;Temp;Humidity;BMP_temperature;BMP_pressure;BME280_temperature;BME280_humidity;BME280_pressure;Samples;Min_cycle;Max_cycle;Signal;HPM_P1;HPM_P2
2022/05/29 00:00:41;;;;;;;12.35;2.28;;;10.20;99.90;;;;;;4925013;28;39285;-74
2022/05/29 00:03:08;;;;;;;11.07;2.20;;;10.20;99.90;;;;;;4934045;28;38650;-74
2022/05/29 00:05:37;;;;;;;12.23;2.15;;;10.10;99.90;;;;;;4949571;28;38222;-73
2022/05/29 00:08:04;;;;;;;8.52;2.05;;;10.10;99.90;;;;;;4942586;28;40191;-74
2022/05/29 00:10:30;;;;;;;10.75;2.00;;;10.10;99.90;;;;;;4940168;28;38533;-73
2022/05/29 00:12:57;;;;;;;10.13;2.35;;;10.00;99.90;;;;;;4939578;28;38082;-73
2022/05/29 00:15:23;;;;;;;12.43;2.28;;;10.00;99.90;;;;;;4939068;28;38333;-73
2022/05/29 00:17:51;;;;;;;9.55;2.33;;;10.00;99.90;;;;;;4951978;28;39409;-73
2022/05/29 00:20:17;;;;;;;6.53;1.50;;;10.00;99.90;;;;;;4933546;28;39340;-74
2022/05/29 00:22:43;;;;;;;11.23;2.10;;;10.00;99.90;;;;;;4935432;28;39367;-73
2022/05/29 00:25:10;;;;;;;11.60;1.67;;;10.00;99.90;;;;;;4936958;28;37896;-73
2022/05/29 00:27:37;;;;;;;9.68;2.17;;;9.90;99.90;;;;;;4935919;28;38560;-74
2022/05/29 00:30:06;;;;;;;9.27;2.15;;;10.00;99.90;;;;;;4931981;28;40179;-73
2022/05/29 00:32:33;;;;;;;10.30;1.85;;;10.00;99.90;;;;;;4939045;28;38171;-74
2022/05/29 00:34:59;;;;;;;8.27;1.97;;;10.00;99.90;;;;;;4951048;28;37918;-74
2022/05/29 00:37:26;;;;;;;7.00;1.85;;;10.00;99.90;;;;;;4922996;28;39514;-74
2022/05/29 00:39:53;;;;;;;10.20;2.17;;;10.00;99.90;;;;;;4935088;28;39956;-74
2022/05/29 00:42:23;;;;;;;12.43;1.80;;;9.90;99.90;;;;;;4942413;28;38783;-74
2022/05/29 00:44:50;;;;;;;12.82;2.60;;;9.90;99.90;;;;;;4941739;28;38250;-74
2022/05/29 00:47:19;;;;;;;10.65;1.92;;;10.00;99.90;;;;;;4940438;28;40851;-74
2022/05/29 00:49:49;;;;;;;8.60;1.80;;;10.00;99.90;;;;;;4942017;28;39120;-75
2022/05/29 00:52:18;;;;;;;7.93;1.88;;;10.00;99.90;;;;;;4942373;28;38443;-74
2022/05/29 00:55:01;;;;;;;8.07;1.77;;;10.00;99.90;;;;;;4942249;28;38526;-74
2022/05/29 00:57:31;;;;;;;11.35;1.80;;;10.00;99.90;;;;;;4934254;28;48426;-74
2022/05/29 01:00:06;;;;;;;8.45;1.83;;;9.90;99.90;;;;;;4937974;28;38832;-74
2022/05/29 01:02:32;;;;;;;7.70;1.77;;;10.00;99.90;;;;;;4932362;28;47114;-74
2022/05/29 01:04:58;;;;;;;9.43;1.88;;;9.90;99.90;;;;;;4930871;28;38931;-74
2022/05/29 01:07:26;;;;;;;12.10;2.10;;;9.90;99.90;;;;;;4950973;28;39318;-74
2022/05/29 01:09:53;;;;;;;9.25;3.30;;;9.90;99.90;;;;;;4927408;28;38773;-74
2022/05/29 01:12:34;;;;;;;10.82;2.55;;;9.90;99.90;;;;;;4924619;28;38671;-74
2022/05/29 01:15:29;;;;;;;4.43;1.52;;;9.90;99.90;;;;;;4956323;28;39406;-74
2022/05/29 01:18:21;;;;;;;14.35;2.45;;;10.00;99.90;;;;;;4934624;28;46129;-74
2022/05/29 01:21:02;;;;;;;10.43;1.40;;;10.00;99.90;;;;;;4942115;28;46865;-74
2022/05/29 01:23:42;;;;;;;7.33;1.70;;;9.90;99.90;;;;;;4953021;28;47194;-74
2022/05/29 01:26:11;;;;;;;6.27;1.50;;;9.90;99.90;;;;;;4942337;28;38013;-74
2022/05/29 01:28:49;;;;;;;6.57;1.73;;;9.90;99.90;;;;;;4948012;28;39264;-73
2022/05/29 01:31:28;;;;;;;7.80;2.43;;;9.90;99.90;;;;;;4953272;28;38706;-74
2022/05/29 01:34:01;;;;;;;6.85;1.73;;;9.90;99.90;;;;;;4945129;28;40119;-73
2022/05/29 01:36:41;;;;;;;10.70;1.98;;;9.80;99.90;;;;;;4940178;28;47695;-73
2022/05/29 01:39:26;;;;;;;6.72;1.58;;;9.80;99.90;;;;;;4940825;28;37950;-73
2022/05/29 01:42:00;;;;;;;6.53;1.60;;;9.80;99.90;;;;;;4954337;28;39356;-73
2022/05/29 01:44:41;;;;;;;5.23;1.67;;;9.80;99.90;;;;;;4939705;28;38236;-73
2022/05/29 01:47:19;;;;;;;7.17;2.00;;;9.80;99.90;;;;;;4940226;28;35793;-73
2022/05/29 01:49:59;;;;;;;10.40;2.13;;;9.80;99.90;;;;;;4941308;28;20187;-74
2022/05/29 01:52:32;;;;;;;13.10;1.73;;;9.80;99.90;;;;;;4939442;28;40381;-73
2022/05/29 01:55:35;;;;;;;12.83;1.90;;;9.80;99.90;;;;;;4954638;28;39108;-73
2022/05/29 01:58:07;;;;;;;;;;;9.90;99.90;;;;;;4956259;28;48655;-73
2022/05/29 02:00:34;;;;;;;8.15;1.80;;;9.90;99.90;;;;;;4958417;28;46031;-74
2022/05/29 02:03:08;;;;;;;9.63;2.23;;;10.00;99.90;;;;;;4940769;28;39699;-73
2022/05/29 02:05:39;;;;;;;14.60;2.77;;;10.00;99.90;;;;;;4947419;28;48765;-74
2022/05/29 02:08:51;;;;;;;9.67;1.77;;;10.00;99.90;;;;;;4939516;28;37019;-74
2022/05/29 02:11:23;;;;;;;5.50;1.70;;;10.00;99.90;;;;;;4947499;28;40401;-74
2022/05/29 02:14:11;;;;;;;8.43;2.13;;;10.10;99.90;;;;;;4952690;28;40087;-74
2022/05/29 02:16:46;;;;;;;10.27;1.80;;;10.20;99.90;;;;;;4938442;28;48206;-74
2022/05/29 02:19:50;;;;;;;11.93;2.22;;;10.30;99.90;;;;;;4936504;28;38303;-74
2022/05/29 02:22:25;;;;;;;11.15;1.92;;;10.30;99.90;;;;;;4914379;28;39262;-74
2022/05/29 02:24:56;;;;;;;9.43;2.38;;;10.30;99.90;;;;;;4932012;28;39397;-74
2022/05/29 02:27:50;;;;;;;8.32;1.65;;;10.30;99.90;;;;;;4939539;28;39310;-74
2022/05/29 02:30:18;;;;;;;12.35;1.63;;;10.40;99.90;;;;;;4940280;28;37168;-74
2022/05/29 02:33:14;;;;;;;9.50;2.30;;;10.40;99.90;;;;;;4942165;28;39333;-74
2022/05/29 02:35:51;;;;;;;9.95;1.98;;;10.50;99.90;;;;;;4945125;28;47542;-74
2022/05/29 02:38:41;;;;;;;7.07;1.40;;;10.50;99.90;;;;;;4940682;28;37145;-75
2022/05/29 02:41:17;;;;;;;7.90;1.80;;;10.50;99.90;;;;;;4943038;28;37142;-74
2022/05/29 02:43:53;;;;;;;7.57;1.70;;;10.60;99.90;;;;;;4937213;28;38690;-74
2022/05/29 02:46:37;;;;;;;11.88;1.92;;;10.60;99.90;;;;;;4938821;28;40450;-74
2022/05/29 02:49:14;;;;;;;12.68;2.53;;;10.70;99.90;;;;;;4955661;28;40247;-75
2022/05/29 02:51:49;;;;;;;7.10;1.30;;;10.70;99.90;;;;;;4953680;28;36155;-75
2022/05/29 02:54:28;;;;;;;10.85;1.90;;;10.80;99.90;;;;;;4949615;28;37953;-75
2022/05/29 02:56:55;;;;;;;6.45;1.73;;;10.80;99.90;;;;;;4937387;28;39030;-74
2022/05/29 02:59:25;;;;;;;8.50;1.70;;;10.80;99.90;;;;;;4959182;28;37833;-74
2022/05/29 03:02:17;;;;;;;7.88;1.58;;;10.80;99.90;;;;;;4957655;28;35990;-75
2022/05/29 03:04:53;;;;;;;8.95;1.40;;;10.90;99.90;;;;;;4944035;28;47732;-75
2022/05/29 03:07:49;;;;;;;7.43;1.27;;;10.90;99.90;;;;;;4945643;28;39783;-74
2022/05/29 03:10:23;;;;;;;6.50;1.40;;;10.90;99.90;;;;;;4943429;28;38644;-75
2022/05/29 03:13:11;;;;;;;11.80;1.67;;;11.00;99.90;;;;;;4943810;28;37300;-75
2022/05/29 03:16:11;;;;;;;10.48;1.55;;;11.00;99.90;;;;;;4943300;28;47666;-74
2022/05/29 03:19:02;;;;;;;7.65;1.67;;;11.00;99.90;;;;;;4924703;28;47285;-75
2022/05/29 03:21:49;;;;;;;7.97;1.55;;;11.00;99.90;;;;;;4960910;28;47782;-74
2022/05/29 03:24:40;;;;;;;4.35;1.20;;;11.00;99.90;;;;;;4946599;28;37803;-74
2022/05/29 03:27:22;;;;;;;4.43;1.52;;;11.00;99.90;;;;;;4930267;28;37612;-75
2022/05/29 03:29:56;;;;;;;7.00;1.70;;;10.90;99.90;;;;;;4962105;28;39261;-75
2022/05/29 03:32:24;;;;;;;9.63;1.58;;;10.90;99.90;;;;;;4946184;28;37972;-75
2022/05/29 03:34:52;;;;;;;6.22;1.30;;;10.90;99.90;;;;;;4949366;28;37408;-75
2022/05/29 03:37:19;;;;;;;9.20;1.63;;;10.90;99.90;;;;;;4953655;28;38602;-75
2022/05/29 03:39:45;;;;;;;9.20;1.73;;;10.80;99.90;;;;;;4949091;28;39975;-75
2022/05/29 03:42:12;;;;;;;7.00;1.75;;;10.60;99.90;;;;;;4949300;28;38927;-75
2022/05/29 03:44:38;;;;;;;11.60;1.75;;;10.40;99.90;;;;;;4948134;28;38278;-74
2022/05/29 03:47:05;;;;;;;8.95;2.05;;;10.30;99.90;;;;;;4945141;28;38146;-75
2022/05/29 03:49:31;;;;;;;7.78;1.70;;;10.20;99.90;;;;;;4948110;28;38674;-74
2022/05/29 03:51:57;;;;;;;6.78;2.45;;;10.20;99.90;;;;;;4965876;28;37391;-75
2022/05/29 03:54:23;;;;;;;7.15;2.13;;;10.20;99.90;;;;;;4942137;28;37749;-74
2022/05/29 03:56:49;;;;;;;8.25;1.90;;;10.20;99.90;;;;;;4944283;28;41324;-75
2022/05/29 03:59:15;;;;;;;8.85;1.60;;;10.10;99.90;;;;;;4944574;28;37675;-75
2022/05/29 04:01:42;;;;;;;10.15;2.10;;;10.10;99.90;;;;;;4961376;28;37427;-75
2022/05/29 04:04:08;;;;;;;6.07;1.60;;;10.10;99.90;;;;;;4944319;28;37287;-75
2022/05/29 04:06:36;;;;;;;11.00;1.67;;;10.10;99.90;;;;;;4946844;28;39661;-75
2022/05/29 04:12:07;;;;;;;3.55;1.10;;;10.10;99.90;;;;;;4942112;28;38852;-75
2022/05/29 04:14:39;;;;;;;5.50;1.40;;;10.10;99.90;;;;;;4939438;28;48848;-75
2022/05/29 04:17:07;;;;;;;6.32;1.38;;;10.10;99.90;;;;;;4939083;28;41006;-75
2022/05/29 04:19:34;;;;;;;3.47;1.15;;;10.00;99.90;;;;;;4941950;28;39000;-75
2022/05/29 04:22:00;;;;;;;3.45;1.20;;;10.00;99.90;;;;;;4941078;28;38518;-75
2022/05/29 04:24:27;;;;;;;3.65;1.13;;;10.00;99.90;;;;;;4941143;28;38052;-75
2022/05/29 04:26:53;;;;;;;5.90;1.30;;;10.00;99.90;;;;;;4942366;28;38886;-75
2022/05/29 04:29:20;;;;;;;6.75;1.52;;;10.00;99.90;;;;;;4944344;28;38620;-75
2022/05/29 04:34:31;;;;;;;6.80;1.45;;;9.90;99.90;;;;;;4942216;28;49425;-75
2022/05/29 04:36:57;;;;;;;4.85;1.52;;;9.80;99.90;;;;;;4943604;28;39368;-74
2022/05/29 04:39:24;;;;;;;6.47;1.27;;;9.80;99.90;;;;;;4957959;28;38212;-74
2022/05/29 04:41:51;;;;;;;5.50;1.52;;;9.80;99.90;;;;;;4940551;28;36509;-74
2022/05/29 04:44:17;;;;;;;3.38;1.30;;;9.80;99.90;;;;;;4951866;28;36252;-74
2022/05/29 04:46:43;;;;;;;6.07;1.38;;;9.90;99.90;;;;;;4941258;28;39784;-74
2022/05/29 04:49:10;;;;;;;9.55;1.80;;;9.90;99.90;;;;;;4955235;28;38346;-74
2022/05/29 04:51:36;;;;;;;7.55;1.63;;;10.00;99.90;;;;;;4945287;28;38529;-74
2022/05/29 04:54:02;;;;;;;3.78;1.20;;;10.00;99.90;;;;;;4960800;28;36462;-74
2022/05/29 04:56:28;;;;;;;3.58;1.27;;;10.10;99.90;;;;;;4943444;28;38199;-75
2022/05/29 04:58:54;;;;;;;4.40;1.40;;;10.10;99.90;;;;;;4945598;28;38898;-75
2022/05/29 05:01:20;;;;;;;3.13;1.38;;;10.20;99.90;;;;;;4959784;28;38701;-75
2022/05/29 05:03:46;;;;;;;6.03;1.33;;;10.40;99.90;;;;;;4945655;28;38143;-75
2022/05/29 05:06:12;;;;;;;5.55;1.25;;;10.50;99.90;;;;;;4945234;28;38586;-73
2022/05/29 05:08:38;;;;;;;6.50;1.50;;;10.50;99.90;;;;;;4941522;28;38974;-75
2022/05/29 05:11:06;;;;;;;6.80;1.45;;;10.40;99.90;;;;;;4942504;28;40218;-73
2022/05/29 05:13:32;;;;;;;9.27;2.88;;;10.50;99.90;;;;;;4958547;28;35295;-73
2022/05/29 05:16:01;;;;;;;9.85;1.85;;;10.50;99.90;;;;;;4944424;28;39573;-74
2022/05/29 05:18:28;;;;;;;5.25;1.27;;;10.50;99.90;;;;;;4941805;28;47866;-74
2022/05/29 05:20:54;;;;;;;6.72;1.60;;;10.60;99.90;;;;;;4961719;28;37383;-74
2022/05/29 05:23:20;;;;;;;8.05;1.27;;;10.60;99.90;;;;;;4959012;28;36068;-74
2022/05/29 05:25:46;;;;;;;4.45;1.60;;;10.70;99.90;;;;;;4945712;28;40277;-74
2022/05/29 05:28:12;;;;;;;9.80;1.35;;;10.80;99.90;;;;;;4957970;28;37871;-74
2022/05/29 05:30:38;;;;;;;7.20;1.90;;;10.80;99.90;;;;;;4944991;28;36573;-74
2022/05/29 05:33:05;;;;;;;6.75;1.40;;;10.80;99.90;;;;;;4936674;28;36930;-74
2022/05/29 05:35:31;;;;;;;6.90;1.85;;;10.80;99.90;;;;;;4942937;28;38936;-74
2022/05/29 05:37:57;;;;;;;5.10;1.80;;;10.80;99.90;;;;;;4964709;28;37539;-74
2022/05/29 05:40:23;;;;;;;9.02;1.67;;;10.90;99.90;;;;;;4954611;28;38975;-74
2022/05/29 05:42:50;;;;;;;6.57;1.33;;;11.00;99.90;;;;;;4951921;28;36803;-74
2022/05/29 05:45:16;;;;;;;4.63;1.35;;;11.10;99.90;;;;;;4949236;28;40008;-74
2022/05/29 05:47:42;;;;;;;4.88;1.52;;;11.20;99.90;;;;;;4943674;28;39376;-74
2022/05/29 05:50:10;;;;;;;5.57;1.50;;;11.20;99.90;;;;;;4941547;28;40373;-75
2022/05/29 05:52:37;;;;;;;6.63;1.50;;;11.30;99.90;;;;;;4942924;28;38536;-75
2022/05/29 05:55:10;;;;;;;3.17;1.33;;;11.30;99.90;;;;;;4944025;28;39390;-75
2022/05/29 05:57:40;;;;;;;4.88;1.70;;;11.30;99.90;;;;;;4944252;28;39201;-74
2022/05/29 06:00:10;;;;;;;5.97;1.50;;;11.40;99.90;;;;;;4946817;28;38537;-75
2022/05/29 06:02:36;;;;;;;7.93;1.40;;;11.40;99.90;;;;;;4949297;28;41797;-75
2022/05/29 06:05:02;;;;;;;6.55;1.38;;;11.50;99.90;;;;;;4945921;28;39447;-75
2022/05/29 06:07:28;;;;;;;6.15;1.70;;;11.50;99.90;;;;;;4950830;28;38711;-75
2022/05/29 06:09:54;;;;;;;4.32;1.55;;;11.70;99.90;;;;;;4948305;28;38496;-74
2022/05/29 06:12:21;;;;;;;7.80;2.20;;;11.70;99.90;;;;;;4954768;28;37253;-74
2022/05/29 06:14:48;;;;;;;3.63;1.70;;;11.70;99.90;;;;;;4950946;28;39029;-74
2022/05/29 06:17:15;;;;;;;4.47;1.30;;;11.90;99.90;;;;;;4963094;28;40241;-74
2022/05/29 06:19:41;;;;;;;4.72;1.55;;;12.00;99.90;;;;;;4953729;28;40238;-72
2022/05/29 06:22:08;;;;;;;6.55;1.55;;;12.10;99.90;;;;;;4949653;28;37430;-74
2022/05/29 06:24:34;;;;;;;11.52;1.95;;;12.10;99.90;;;;;;4945675;28;39780;-72
2022/05/29 06:27:00;;;;;;;7.38;1.48;;;11.80;99.90;;;;;;4947077;28;39504;-72
2022/05/29 06:29:26;;;;;;;6.80;1.52;;;11.70;99.90;;;;;;4956590;28;38123;-72
2022/05/29 06:31:53;;;;;;;6.97;1.50;;;11.60;99.90;;;;;;4949410;28;36974;-74
2022/05/29 06:34:21;;;;;;;6.93;1.95;;;11.40;99.90;;;;;;4953555;28;38992;-76
2022/05/29 06:36:47;;;;;;;7.90;1.90;;;11.40;99.90;;;;;;4960319;28;38686;-75
2022/05/29 06:39:13;;;;;;;5.57;1.88;;;11.30;99.90;;;;;;4948206;28;38413;-75
2022/05/29 06:41:39;;;;;;;5.60;2.20;;;11.30;99.90;;;;;;4947581;28;37688;-74
2022/05/29 06:44:06;;;;;;;8.73;2.13;;;11.30;99.90;;;;;;4957323;28;39708;-74
2022/05/29 06:46:33;;;;;;;6.25;2.00;;;11.40;99.90;;;;;;4955798;28;37699;-75
2022/05/29 06:48:59;;;;;;;6.60;1.67;;;11.50;99.90;;;;;;4949200;28;39197;-75
2022/05/29 06:51:26;;;;;;;8.25;3.15;;;11.70;99.90;;;;;;4935116;28;37633;-73
2022/05/29 06:53:55;;;;;;;5.95;1.38;;;12.00;99.90;;;;;;4931329;28;37738;-74
2022/05/29 06:56:22;;;;;;;3.53;1.35;;;12.40;99.90;;;;;;4921094;28;39813;-74
2022/05/29 06:58:48;;;;;;;2.97;1.10;;;12.60;99.90;;;;;;4915570;28;38409;-74
2022/05/29 07:07:01;;;;;;;7.18;1.73;;;13.80;99.90;;;;;;4933996;28;39380;-74
2022/05/29 07:09:30;;;;;;;7.60;1.33;;;13.40;99.90;;;;;;4948783;28;47387;-74
2022/05/29 07:12:18;;;;;;;5.68;1.20;;;12.90;99.90;;;;;;4936376;28;37350;-74
2022/05/29 07:14:53;;;;;;;6.22;1.17;;;12.30;99.90;;;;;;4929671;28;46999;-74
2022/05/29 07:17:19;;;;;;;6.93;1.20;;;12.10;99.90;;;;;;4951109;28;37928;-73
2022/05/29 07:19:45;;;;;;;10.38;1.35;;;11.90;99.90;;;;;;4929720;28;38144;-74
2022/05/29 07:22:12;;;;;;;6.80;2.05;;;11.90;99.90;;;;;;4938743;28;39123;-73
2022/05/29 07:24:39;;;;;;;8.00;1.40;;;11.90;99.90;;;;;;4930406;28;38590;-74
2022/05/29 07:27:06;;;;;;;6.75;1.30;;;12.20;99.90;;;;;;4917637;28;39253;-74
2022/05/29 07:29:33;;;;;;;4.75;1.15;;;12.80;99.90;;;;;;4922565;28;38779;-74
2022/05/29 07:32:00;;;;;;;7.43;1.67;;;13.10;99.90;;;;;;4933746;28;37946;-74
2022/05/29 07:34:27;;;;;;;3.15;1.08;;;13.50;99.90;;;;;;4935983;28;39019;-75
2022/05/29 07:37:00;;;;;;;5.40;1.27;;;13.50;99.90;;;;;;4952396;28;39236;-75
2022/05/29 07:39:26;;;;;;;5.60;0.98;;;13.90;99.90;;;;;;4931853;28;40609;-75
2022/05/29 07:44:37;;;;;;;3.13;1.00;;;13.70;99.90;;;;;;4936546;28;49142;-75
2022/05/29 07:47:03;;;;;;;6.80;1.23;;;13.60;99.90;;;;;;4932582;28;39162;-75
2022/05/29 07:49:29;;;;;;;6.18;1.10;;;13.80;99.90;;;;;;4938884;28;38683;-74
2022/05/29 07:51:55;;;;;;;9.63;1.58;;;13.70;99.90;;;;;;4930968;28;35775;-75
2022/05/29 07:54:25;;;;;;;6.63;1.30;;;13.30;99.90;;;;;;4934231;28;38660;-76
2022/05/29 07:56:51;;;;;;;5.78;1.48;;;12.70;99.90;;;;;;4938423;28;40307;-75
2022/05/29 07:59:18;;;;;;;7.13;1.80;;;12.40;99.90;;;;;;4941637;28;38350;-75
2022/05/29 08:01:45;;;;;;;7.53;1.73;;;12.10;99.90;;;;;;4939316;28;36620;-75
2022/05/29 08:04:11;;;;;;;6.57;1.45;;;12.10;99.90;;;;;;4939778;28;38526;-74
2022/05/29 08:06:37;;;;;;;6.78;1.60;;;12.20;99.90;;;;;;4956055;28;42336;-75
2022/05/29 08:09:04;;;;;;;9.43;1.75;;;12.30;99.90;;;;;;4942648;28;39767;-77
2022/05/29 08:11:30;;;;;;;8.18;1.55;;;12.30;99.90;;;;;;4959971;28;36041;-76
2022/05/29 08:13:57;;;;;;;8.60;2.47;;;12.40;99.90;;;;;;4952548;28;38764;-76
2022/05/29 08:16:23;;;;;;;6.78;1.55;;;12.30;99.90;;;;;;4942238;28;39927;-76
2022/05/29 08:18:49;;;;;;;4.28;1.33;;;12.50;99.90;;;;;;4940155;28;38478;-76
2022/05/29 08:21:15;;;;;;;4.78;1.20;;;12.80;99.90;;;;;;4943665;28;37035;-76
2022/05/29 08:30:37;;;;;;;8.27;1.42;;;13.10;99.90;;;;;;4942325;28;39423;-76
2022/05/29 08:31:57;;;;;;;9.75;1.70;;;13.00;99.90;;;;;;4940861;28;38487;-74
2022/05/29 08:34:23;;;;;;;5.63;1.20;;;12.90;99.90;;;;;;4926834;28;39097;-75
2022/05/29 08:36:49;;;;;;;5.13;0.95;;;12.80;99.90;;;;;;4937654;28;40182;-74
2022/05/29 08:39:15;;;;;;;5.80;1.33;;;12.80;99.90;;;;;;4932467;28;38485;-75
2022/05/29 08:41:48;;;;;;;9.35;1.30;;;12.70;99.90;;;;;;4936568;28;37406;-76
2022/05/29 08:44:23;;;;;;;;;;;12.70;99.90;;;;;;4957619;28;40715;-74
2022/05/29 08:46:52;;;;;;;9.82;1.30;;;12.60;99.90;;;;;;4940532;28;39465;-75
2022/05/29 08:49:23;;;;;;;5.68;1.00;;;12.70;99.90;;;;;;4939453;28;38781;-75
2022/05/29 08:52:00;;;;;;;3.85;1.02;;;12.80;99.90;;;;;;4947497;28;38223;-75
2022/05/29 08:54:48;;;;;;;4.93;0.90;;;12.90;99.90;;;;;;4936481;28;39843;-75
2022/05/29 08:57:28;;;;;;;4.93;1.00;;;13.20;99.90;;;;;;4932848;28;37786;-75
2022/05/29 09:00:00;;;;;;;8.55;1.35;;;13.60;99.90;;;;;;4955658;28;39228;-76
2022/05/29 09:02:45;;;;;;;5.50;1.23;;;13.90;99.90;;;;;;4940295;28;40766;-74
2022/05/29 09:05:40;;;;;;;4.45;0.90;;;14.00;99.90;;;;;;4938003;28;39642;-74
2022/05/29 09:08:15;;;;;;;3.60;0.63;;;13.90;99.90;;;;;;4951950;28;39540;-80
2022/05/29 09:10:44;;;;;;;10.10;1.45;;;13.70;99.90;;;;;;4940820;28;37698;-75
2022/05/29 09:13:20;;;;;;;8.55;1.67;;;13.40;99.90;;;;;;4925153;28;38669;-76
2022/05/29 09:15:56;;;;;;;6.55;1.15;;;13.40;99.90;;;;;;4927067;28;39362;-76
2022/05/29 09:18:29;;;;;;;4.88;1.20;;;13.50;99.90;;;;;;4941300;28;39063;-75
2022/05/29 09:21:04;;;;;;;4.07;1.00;;;13.60;99.90;;;;;;4958014;28;40000;-76
2022/05/29 09:23:40;;;;;;;5.57;1.00;;;13.50;99.90;;;;;;4935851;28;47172;-76
2022/05/29 09:26:08;;;;;;;5.20;1.30;;;13.50;99.90;;;;;;4940115;28;40119;-74
2022/05/29 09:28:41;;;;;;;6.25;0.70;;;13.50;99.90;;;;;;4943791;28;39117;-75
2022/05/29 09:31:25;;;;;;;8.10;1.17;;;13.50;99.90;;;;;;4945499;28;36289;-75
2022/05/29 09:33:51;;;;;;;4.65;0.80;;;13.50;99.90;;;;;;4941696;28;37945;-76
2022/05/29 09:36:54;;;;;;;6.97;1.08;;;13.60;99.90;;;;;;4948403;28;38696;-77
2022/05/29 09:39:28;;;;;;;4.13;0.70;;;13.60;99.90;;;;;;4947525;28;38853;-75
2022/05/29 09:42:24;;;;;;;2.20;0.57;;;13.60;99.90;;;;;;4944863;28;38910;-75
2022/05/29 09:45:15;;;;;;;1.38;0.50;;;14.00;99.90;;;;;;4941798;28;48627;-77
2022/05/29 09:50:43;;;;;;;3.45;0.40;;;15.20;99.90;;;;;;4944373;28;49700;-75
2022/05/29 09:53:16;;;;;;;2.63;0.60;;;15.00;99.90;;;;;;4944694;28;38242;-74
2022/05/29 09:55:50;;;;;;;1.13;0.30;;;14.60;99.90;;;;;;4943383;28;37742;-74
2022/05/29 09:58:25;;;;;;;3.60;0.55;;;14.30;99.90;;;;;;4942883;28;39091;-75
2022/05/29 10:01:01;;;;;;;3.05;0.75;;;14.50;99.90;;;;;;4945725;28;37717;-76
2022/05/29 10:03:33;;;;;;;2.00;0.35;;;14.40;99.90;;;;;;4944787;28;48310;-75
2022/05/29 10:06:06;;;;;;;;;;;14.30;99.90;;;;;;4947560;28;37982;-74
2022/05/29 10:08:33;;;;;;;;;;;14.20;99.90;;;;;;4942424;28;47412;-74
2022/05/29 10:11:17;;;;;;;3.35;0.70;;;14.10;99.90;;;;;;4944147;28;39278;-73
2022/05/29 10:13:44;;;;;;;3.75;0.47;;;14.00;99.90;;;;;;4944878;28;47794;-73
2022/05/29 10:16:12;;;;;;;3.15;0.57;;;13.90;99.90;;;;;;4939086;28;37706;-74
2022/05/29 10:18:41;;;;;;;2.72;0.73;;;14.00;99.90;;;;;;4959387;28;40721;-76
2022/05/29 10:21:31;;;;;;;4.50;0.77;;;14.10;99.90;;;;;;4942627;28;39926;-74
2022/05/29 10:24:23;;;;;;;3.42;0.85;;;14.10;99.90;;;;;;4945708;28;39311;-78
2022/05/29 10:26:53;;;;;;;3.72;0.60;;;13.80;99.90;;;;;;4945081;28;47942;-78
2022/05/29 10:29:35;;;;;;;4.05;0.75;;;13.40;99.90;;;;;;4943574;28;39811;-77
2022/05/29 10:32:08;;;;;;;4.88;1.05;;;13.10;99.90;;;;;;4945039;28;39750;-75
2022/05/29 10:34:38;;;;;;;2.60;0.38;;;13.00;99.90;;;;;;4943684;28;48889;-76
2022/05/29 10:37:23;;;;;;;3.58;1.05;;;13.10;99.90;;;;;;4928109;28;37173;-75
2022/05/29 10:39:50;;;;;;;2.50;0.50;;;13.40;99.90;;;;;;4938007;28;37633;-77
2022/05/29 10:42:37;;;;;;;4.35;0.47;;;13.60;99.90;;;;;;4939223;28;39155;-76
2022/05/29 10:45:03;;;;;;;3.20;0.68;;;13.60;99.90;;;;;;4942788;28;38986;-75
2022/05/29 10:47:43;;;;;;;4.85;1.00;;;13.40;99.90;;;;;;4943938;28;35923;-76
2022/05/29 10:50:29;;;;;;;4.28;0.70;;;13.10;99.90;;;;;;4949768;28;38463;-77
2022/05/29 10:53:03;;;;;;;11.38;1.00;;;12.90;99.90;;;;;;4948918;28;38867;-75
2022/05/29 10:55:36;;;;;;;4.10;0.77;;;12.60;99.90;;;;;;4944828;28;48771;-75
2022/05/29 10:58:11;;;;;;;5.22;0.80;;;12.70;99.90;;;;;;4967923;28;37162;-76
2022/05/29 11:00:53;;;;;;;2.88;1.20;;;12.90;99.90;;;;;;4944373;28;47068;-76
2022/05/29 11:04:00;;;;;;;5.13;0.90;;;13.30;99.90;;;;;;4944872;28;39411;-77
2022/05/29 11:07:10;;;;;;;5.40;1.10;;;13.50;99.90;;;;;;4946062;28;40759;-75
2022/05/29 11:09:56;;;;;;;7.05;0.90;;;13.50;99.90;;;;;;4923606;29;48549;-75
2022/05/29 11:12:45;;;;;;;3.35;0.90;;;13.50;99.90;;;;;;4921978;28;40457;-75
2022/05/29 11:15:21;;;;;;;6.38;1.10;;;13.70;99.90;;;;;;4941178;28;37448;-75
2022/05/29 11:18:06;;;;;;;4.80;1.42;;;13.70;99.90;;;;;;4944433;28;39231;-75
2022/05/29 11:20:51;;;;;;;4.07;0.90;;;13.80;99.90;;;;;;4945310;28;48420;-75
2022/05/29 11:23:47;;;;;;;6.18;1.50;;;14.20;99.90;;;;;;4962942;28;39565;-75
2022/05/29 11:26:23;;;;;;;8.60;2.10;;;14.50;99.90;;;;;;4941070;28;37790;-76
2022/05/29 11:28:52;;;;;;;6.30;1.30;;;13.90;99.90;;;;;;4944861;28;39314;-75
2022/05/29 11:31:47;;;;;;;5.97;1.23;;;13.30;99.90;;;;;;4941781;28;36816;-76
2022/05/29 11:34:20;;;;;;;13.98;1.50;;;12.80;99.90;;;;;;4942546;28;38968;-75
2022/05/29 11:37:08;;;;;;;3.42;0.95;;;12.60;99.90;;;;;;4939267;28;40617;-76
2022/05/29 11:39:44;;;;;;;8.98;1.52;;;12.60;99.90;;;;;;4956197;28;47383;-75
2022/05/29 11:42:43;;;;;;;8.90;1.95;;;12.50;99.90;;;;;;4944577;28;38974;-75
2022/05/29 11:51:37;;;;;;;6.90;1.30;;;13.20;99.90;;;;;;4944214;28;49606;-75
2022/05/29 11:54:14;;;;;;;9.05;1.38;;;13.40;99.90;;;;;;4939981;28;37653;-74
2022/05/29 11:56:50;;;;;;;4.50;1.10;;;13.60;99.90;;;;;;4956552;28;40754;-74
2022/05/29 11:59:45;;;;;;;4.57;1.38;;;14.10;99.90;;;;;;4955629;28;38855;-74
2022/05/29 12:02:23;;;;;;;3.70;0.82;;;14.30;99.90;;;;;;4958991;28;36514;-75
2022/05/29 12:05:02;;;;;;;5.88;1.30;;;14.60;99.90;;;;;;4950419;28;37781;-76
2022/05/29 12:07:58;;;;;;;4.90;0.82;;;15.50;99.90;;;;;;4950227;28;48602;-78
2022/05/29 12:10:30;;;;;;;3.33;0.88;;;15.50;99.90;;;;;;4940915;28;39592;-77
2022/05/29 12:12:59;;;;;;;;;;;15.70;99.90;;;;;;4946908;28;38290;-77
2022/05/29 12:15:25;;;;;;;4.55;1.00;;;15.30;99.90;;;;;;4964155;28;36709;-77
2022/05/29 12:18:00;;;;;;;3.45;0.80;;;14.90;99.90;;;;;;4946532;28;38973;-79
2022/05/29 12:20:56;;;;;;;3.83;0.90;;;14.90;99.90;;;;;;4941685;28;38636;-75
2022/05/29 12:23:25;;;;;;;7.78;0.95;;;14.80;99.90;;;;;;4920490;28;39524;-77
2022/05/29 12:26:08;;;;;;;8.10;1.55;;;14.90;99.90;;;;;;4954512;28;36595;-75
2022/05/29 12:28:57;;;;;;;4.03;1.00;;;14.80;99.90;;;;;;4957554;28;47462;-75
2022/05/29 12:31:41;;;;;;;2.97;0.65;;;15.00;99.90;;;;;;4956097;28;38681;-74
2022/05/29 12:34:16;;;;;;;6.65;1.35;;;15.10;99.90;;;;;;4954299;28;39111;-76
2022/05/29 12:36:51;;;;;;;5.43;1.10;;;15.20;99.90;;;;;;4936919;28;36029;-76
2022/05/29 12:39:50;;;;;;;5.43;0.85;;;15.50;99.90;;;;;;4951407;28;40678;-76
2022/05/29 12:42:42;;;;;;;6.78;0.93;;;15.60;99.90;;;;;;4965634;28;39466;-75
2022/05/29 12:45:35;;;;;;;5.32;1.10;;;15.40;99.90;;;;;;4942237;28;39068;-76
2022/05/29 12:48:40;;;;;;;6.03;0.80;;;15.30;99.90;;;;;;4960627;28;38689;-78
2022/05/29 12:51:23;;;;;;;4.07;0.80;;;15.30;99.90;;;;;;4952212;28;47145;-78
2022/05/29 12:53:50;;;;;;;4.03;0.80;;;15.40;99.90;;;;;;4960547;28;39204;-77
2022/05/29 12:56:37;;;;;;;4.18;0.95;;;15.30;99.90;;;;;;4947310;28;39256;-78
2022/05/29 12:59:36;;;;;;;4.20;0.93;;;15.40;99.90;;;;;;4945025;28;36956;-78
2022/05/29 13:02:35;;;;;;;3.40;1.00;;;15.50;99.90;;;;;;4950006;28;38518;-78
2022/05/29 13:05:20;;;;;;;3.58;0.90;;;15.70;99.90;;;;;;4957866;28;40677;-78
2022/05/29 13:08:31;;;;;;;3.13;0.50;;;15.60;99.90;;;;;;4937458;28;38414;-78
2022/05/29 13:10:59;;;;;;;5.03;0.88;;;15.30;99.90;;;;;;4939349;28;48454;-78
2022/05/29 13:13:41;;;;;;;2.92;1.20;;;15.40;99.90;;;;;;4939333;28;38416;-77
2022/05/29 13:16:32;;;;;;;8.88;0.90;;;15.30;99.90;;;;;;4943594;28;39548;-77
2022/05/29 13:19:14;;;;;;;3.47;0.57;;;14.90;99.90;;;;;;4946417;28;38690;-77
2022/05/29 13:21:58;;;;;;;6.80;0.88;;;14.90;99.90;;;;;;4940168;28;48631;-77
2022/05/29 13:24:36;;;;;;;7.32;0.80;;;15.00;99.90;;;;;;4954163;28;40401;-77
2022/05/29 13:27:17;;;;;;;4.45;1.00;;;15.00;99.90;;;;;;4947053;28;39547;-78
2022/05/29 13:29:46;;;;;;;7.28;0.85;;;15.10;99.90;;;;;;4946785;28;38779;-79
2022/05/29 13:32:18;;;;;;;6.28;1.67;;;15.60;99.90;;;;;;4950652;28;36903;-78
2022/05/29 13:34:49;;;;;;;9.05;1.00;;;15.80;99.90;;;;;;4944686;28;39467;-79
2022/05/29 13:37:39;;;;;;;5.32;0.80;;;15.40;99.90;;;;;;4941995;28;38854;-79
2022/05/29 13:40:07;;;;;;;4.63;0.70;;;15.10;99.90;;;;;;4946732;28;38163;-79
2022/05/29 13:42:41;;;;;;;6.35;1.23;;;15.00;99.90;;;;;;4940957;28;37061;-78
2022/05/29 13:45:19;;;;;;;5.07;0.75;;;15.10;99.90;;;;;;4955965;28;37564;-79
2022/05/29 13:48:06;;;;;;;2.20;0.50;;;15.00;99.90;;;;;;4960636;28;39520;-79
2022/05/29 13:50:53;;;;;;;3.22;0.60;;;15.10;99.90;;;;;;4959259;28;47966;-78
2022/05/29 13:53:48;;;;;;;2.78;0.68;;;14.90;99.90;;;;;;4951260;28;38035;-79